Darstellungsparameter: Aktuell verwendete Einstellungen:
Skalierung der Graphiken ... ?
xyx+y,   Skalierungsfaktor:      Skalierung: Modus: x, Faktor: 1
Darstellungszeitraum ... ?
Vom - - bis: - -   Zeitraum: 12.03.2010 - 18.03.2010
Min/Max/Avg-Anzeige ... ?
Zeige MMA aktuell
Zeige MMA Monat
Zeige MMA alles
Zeige --A aktuell
Zeige --A Monat
Zeige --A alles
Keine MMA-Anzeige
MMA:
Average (ber die Originaldaten)
MMA-Basis: 12.03.2010 - 18.03.2010
Quicknavigation für Darstellung... ?
Tage:      1T, 2T, 3T, 5T -1T -2T -3T -5T +1T +2T +3T +5T
Wochen: 1W, 2W, 3W -1W -2W -3W +1W +2W +3W
Monate: 1M, 3M, 6M -1M -3M -6M +1M +3M +6M
Jahre:    1J, 3J, 5J, 10J -1J -3J -5J -10J +1J +3J +5J +10J
Nutze für die Darstellung ... ?
Originaldaten oder Mittelwerte auf ...
Stundenbasis Tagesbasis Wochenbasis
Monatsbasis Jahresbasis      Datenbasis: Original-Daten
Darstellen als:
Statistik (Auto) Statistik J:M      Darstellung:
Zur Graphik,    zurück zur Übersicht aller Sensoren.
 
Tabellarische Datenbersicht: ?
 
Sensor: Nr:Datum:Temp:Abs-Feuchte:Windchill:Wind:
Aussen-T/F 1 12-03-2010 00:07:05 -2.6 C 2.87 g/m*3 -2.6 C 0 km/h
2 12-03-2010 00:19:05 -2.6 C 2.87 g/m*3 -2.6 C 0 km/h
3 12-03-2010 00:31:05 -2.7 C 2.89 g/m*3 -2.7 C 0 km/h
4 12-03-2010 00:43:05 -2.7 C 2.89 g/m*3 -2.7 C 0 km/h
5 12-03-2010 00:55:05 -2.3 C 2.97 g/m*3 -2.3 C 0 km/h
6 12-03-2010 01:07:05 -1.9 C 3.06 g/m*3 -1.9 C 0 km/h
7 12-03-2010 01:19:05 -1.6 C 3.08 g/m*3 -1.6 C 0 km/h
8 12-03-2010 01:31:05 -1.5 C 3.06 g/m*3 -1.5 C 0 km/h
9 12-03-2010 01:43:05 -1.3 C 3.1 g/m*3 -1.3 C 0 km/h
10 12-03-2010 01:55:06 -1.4 C 3.03 g/m*3 -1.4 C 0 km/h
11 12-03-2010 02:07:06 -1.4 C 3.03 g/m*3 -1.4 C 0 km/h
12 12-03-2010 02:19:06 -1.3 C 3.1 g/m*3 -1.3 C 0 km/h
13 12-03-2010 02:31:06 -1.3 C 3.1 g/m*3 -1.3 C 0 km/h
14 12-03-2010 02:43:06 -1.3 C 3.1 g/m*3 -1.3 C 0 km/h
15 12-03-2010 02:55:06 -1.3 C 3.1 g/m*3 -1.3 C 0 km/h
16 12-03-2010 03:07:06 -1.2 C 3.12 g/m*3 -1.2 C 0 km/h
17 12-03-2010 03:19:06 -1.3 C 3.1 g/m*3 -1.3 C 0 km/h
18 12-03-2010 03:31:06 -1.3 C 3.1 g/m*3 -1.3 C 0 km/h
19 12-03-2010 03:43:06 -1.3 C 3.14 g/m*3 -1.3 C 0 km/h
20 12-03-2010 03:55:06 -1.2 C 3.17 g/m*3 -1.2 C 0 km/h
21 12-03-2010 04:07:06 -1.3 C 3.14 g/m*3 -1.3 C 0 km/h
22 12-03-2010 04:19:06 -1.3 C 3.14 g/m*3 -1.3 C 0 km/h
23 12-03-2010 04:31:06 -1.3 C 3.14 g/m*3 -1.3 C 0 km/h
24 12-03-2010 04:43:06 -1.3 C 3.14 g/m*3 -1.3 C 0 km/h
25 12-03-2010 04:55:06 -1.3 C 3.14 g/m*3 -1.3 C 0 km/h
Sensor: Nr:Datum:Temp:Abs-Feuchte:Windchill:Wind:
Aussen-T/F 26 12-03-2010 05:07:06 -1.2 C 3.17 g/m*3 -1.2 C 0 km/h
27 12-03-2010 05:19:06 -1.2 C 3.21 g/m*3 -1.2 C 0 km/h
28 12-03-2010 05:31:06 -1.2 C 3.21 g/m*3 -1.2 C 0 km/h
29 12-03-2010 05:43:06 -1.1 C 3.23 g/m*3 -1.1 C 0 km/h
30 12-03-2010 05:55:06 -1.1 C 3.23 g/m*3 -1.1 C 0 km/h
31 12-03-2010 06:07:07 -1.1 C 3.28 g/m*3 -1.1 C 0 km/h
32 12-03-2010 06:19:07 -1.1 C 3.28 g/m*3 -1.1 C 0 km/h
33 12-03-2010 06:31:07 -0.9 C 3.32 g/m*3 -0.9 C 0 km/h
34 12-03-2010 06:43:07 -0.9 C 3.32 g/m*3 -0.9 C 0 km/h
35 12-03-2010 06:55:07 -0.9 C 3.37 g/m*3 -0.9 C 0 km/h
36 12-03-2010 07:07:03 -0.9 C 3.41 g/m*3 -0.9 C 0 km/h
37 12-03-2010 07:19:04 -0.9 C 3.46 g/m*3 -0.9 C 0 km/h
38 12-03-2010 07:31:03 -0.9 C 3.51 g/m*3 -0.9 C 0 km/h
39 12-03-2010 07:43:03 -0.9 C 3.55 g/m*3 -0.9 C 0 km/h
40 12-03-2010 07:55:01 -0.9 C 3.6 g/m*3 -0.9 C 0 km/h
41 12-03-2010 08:07:02 -0.7 C 3.69 g/m*3 -0.7 C 0 km/h
42 12-03-2010 08:19:02 -0.7 C 3.69 g/m*3 -0.7 C 0 km/h
43 12-03-2010 08:31:01 -0.5 C 3.74 g/m*3 -0.5 C 0 km/h
44 12-03-2010 08:43:01 -0.4 C 3.77 g/m*3 -0.4 C 0 km/h
45 12-03-2010 08:55:03 -0.4 C 3.82 g/m*3 -0.4 C 0 km/h
46 12-03-2010 09:07:02 -0.3 C 3.89 g/m*3 -0.3 C 0 km/h
47 12-03-2010 09:19:02 -0.2 C 3.92 g/m*3 -0.2 C 0 km/h
48 12-03-2010 09:31:03 0 C 4.02 g/m*3 0 C 0 km/h
49 12-03-2010 09:43:03 0.1 C 4.05 g/m*3 0.1 C 0 km/h
50 12-03-2010 09:55:02 0.3 C 4.06 g/m*3 0.3 C 0 km/h
Sensor: Nr:Datum:Temp:Abs-Feuchte:Windchill:Wind:
Aussen-T/F 51 12-03-2010 10:07:01 0.4 C 4.08 g/m*3 0.4 C 0 km/h
52 12-03-2010 10:19:02 0.7 C 4.12 g/m*3 0.7 C 0 km/h
53 12-03-2010 10:31:02 0.9 C 4.12 g/m*3 0.9 C 0 km/h
54 12-03-2010 10:43:02 1.3 C 4.13 g/m*3 1.3 C 0 km/h
55 12-03-2010 10:55:02 1.5 C 4.14 g/m*3 1.5 C 0 km/h
56 12-03-2010 11:07:03 1.8 C 4.11 g/m*3 1.8 C 0 km/h
57 12-03-2010 11:19:02 2.1 C 4.08 g/m*3 2.1 C 0 km/h
58 12-03-2010 11:31:02 2.2 C 4.06 g/m*3 2.2 C 0 km/h
59 12-03-2010 11:43:03 2.6 C 4.17 g/m*3 2.6 C 0 km/h
60 12-03-2010 11:55:01 2.7 C 4.2 g/m*3 2.7 C 0 km/h
61 12-03-2010 12:07:02 2.8 C 4.16 g/m*3 2.8 C 0 km/h
62 12-03-2010 12:19:01 3.1 C 4.19 g/m*3 3.1 C 0 km/h
63 12-03-2010 12:31:01 3.4 C 4.28 g/m*3 3.4 C 0 km/h
64 12-03-2010 12:43:01 3.8 C 4.27 g/m*3 3.8 C 0 km/h
65 12-03-2010 12:55:01 3.9 C 4.29 g/m*3 3.9 C 0 km/h
66 12-03-2010 13:07:02 4.4 C 4.31 g/m*3 4.4 C 0 km/h
67 12-03-2010 13:19:01 4.4 C 4.24 g/m*3 4.4 C 0 km/h
68 12-03-2010 13:31:02 4.6 C 4.3 g/m*3 4.6 C 0 km/h
69 12-03-2010 13:43:02 5 C 4.14 g/m*3 5 C 0 km/h
70 12-03-2010 13:55:01 5.2 C 4.27 g/m*3 5.2 C 0 km/h
71 12-03-2010 14:07:02 4.8 C 4.16 g/m*3 4.8 C 0 km/h
72 12-03-2010 14:19:02 5 C 4.08 g/m*3 5 C 0 km/h
73 12-03-2010 14:31:01 5.1 C 4.1 g/m*3 5.1 C 0 km/h
74 12-03-2010 14:43:01 5.4 C 4.12 g/m*3 5.4 C 0 km/h
75 12-03-2010 14:55:01 6.1 C 4.09 g/m*3 6.1 C 0 km/h
Sensor: Nr:Datum:Temp:Abs-Feuchte:Windchill:Wind:
Aussen-T/F 76 12-03-2010 15:07:02 7.1 C 4.29 g/m*3 7.1 C 0 km/h
77 12-03-2010 15:19:02 6.9 C 3.85 g/m*3 6.9 C 0 km/h
78 12-03-2010 15:31:01 7.4 C 4.06 g/m*3 7.4 C 0 km/h
79 12-03-2010 15:43:01 7.3 C 3.95 g/m*3 7.3 C 0 km/h
80 12-03-2010 15:55:01 6.1 C 3.8 g/m*3 6.1 C 0 km/h
81 12-03-2010 16:07:01 5.3 C 4.09 g/m*3 5.3 C 0 km/h
82 12-03-2010 16:19:02 4.9 C 4.25 g/m*3 4.9 C 0 km/h
83 12-03-2010 16:31:01 5.1 C 4.38 g/m*3 5.1 C 0 km/h
84 12-03-2010 16:43:01 5.2 C 4.41 g/m*3 5.2 C 0 km/h
85 12-03-2010 16:55:02 5.1 C 4.31 g/m*3 5.1 C 0 km/h
86 12-03-2010 17:07:01 4.9 C 4.32 g/m*3 4.9 C 0 km/h
87 12-03-2010 17:19:01 4.9 C 4.32 g/m*3 4.9 C 0 km/h
88 12-03-2010 17:31:01 4.8 C 4.29 g/m*3 4.8 C 0 km/h
89 12-03-2010 17:43:01 4.4 C 4.24 g/m*3 4.4 C 0 km/h
90 12-03-2010 17:55:02 4.1 C 4.29 g/m*3 4.1 C 0 km/h
91 12-03-2010 18:07:02 3.9 C 4.36 g/m*3 3.9 C 0 km/h
92 12-03-2010 18:19:02 3.7 C 4.36 g/m*3 3.7 C 0 km/h
93 12-03-2010 18:31:01 3.5 C 4.37 g/m*3 3.5 C 0 km/h
94 12-03-2010 18:43:01 3.2 C 4.28 g/m*3 3.2 C 0 km/h
95 12-03-2010 18:55:02 3 C 4.28 g/m*3 3 C 0 km/h
96 12-03-2010 19:07:01 2.8 C 4.34 g/m*3 2.8 C 0 km/h
97 12-03-2010 19:19:02 2.8 C 4.34 g/m*3 2.8 C 0 km/h
98 12-03-2010 19:31:01 2.8 C 4.4 g/m*3 2.8 C 0 km/h
99 12-03-2010 19:43:01 2.9 C 4.43 g/m*3 2.9 C 0 km/h
100 12-03-2010 19:55:02 3.1 C 4.43 g/m*3 3.1 C 0 km/h
Sensor: Nr:Datum:Temp:Abs-Feuchte:Windchill:Wind:
Aussen-T/F 101 12-03-2010 20:07:02 3.1 C 4.43 g/m*3 3.1 C 0 km/h
102 12-03-2010 20:19:02 3.1 C 4.43 g/m*3 3.1 C 0 km/h
103 12-03-2010 20:31:03 3.2 C 4.46 g/m*3 3.2 C 0 km/h
104 12-03-2010 20:43:03 3.1 C 4.37 g/m*3 3.1 C 0 km/h
105 12-03-2010 20:55:02 2.9 C 4.43 g/m*3 2.9 C 0 km/h
106 12-03-2010 21:07:01 2.8 C 4.4 g/m*3 2.8 C 0 km/h
107 12-03-2010 21:19:02 2.8 C 4.46 g/m*3 2.8 C 0 km/h
108 12-03-2010 21:31:02 2.7 C 4.43 g/m*3 2.7 C 0 km/h
109 12-03-2010 21:43:02 2.7 C 4.43 g/m*3 2.7 C 0 km/h
110 12-03-2010 21:55:03 2.6 C 4.4 g/m*3 2.6 C 0 km/h
111 12-03-2010 22:07:03 2.6 C 4.4 g/m*3 2.6 C 0 km/h
112 12-03-2010 22:20:03 2.6 C 4.46 g/m*3 2.6 C 0 km/h
113 12-03-2010 22:32:03 2.4 C 4.4 g/m*3 2.4 C 0 km/h
114 12-03-2010 22:44:03 2.4 C 4.45 g/m*3 2.4 C 0 km/h
115 12-03-2010 22:56:03 2.4 C 4.45 g/m*3 2.4 C 0 km/h
116 12-03-2010 23:08:03 2.4 C 4.45 g/m*3 2.4 C 0 km/h
117 12-03-2010 23:20:03 2.4 C 4.45 g/m*3 2.4 C 0 km/h
118 12-03-2010 23:32:03 2.3 C 4.42 g/m*3 2.3 C 0 km/h
119 12-03-2010 23:44:03 2.2 C 4.45 g/m*3 2.2 C 0 km/h
120 12-03-2010 23:56:03 2.3 C 4.48 g/m*3 2.3 C 0 km/h
121 13-03-2010 00:08:03 2.3 C 4.48 g/m*3 2.3 C 0 km/h
122 13-03-2010 00:20:03 2.2 C 4.45 g/m*3 2.2 C 0 km/h
123 13-03-2010 00:32:03 2.3 C 4.48 g/m*3 2.3 C 0 km/h
124 13-03-2010 00:44:03 2.3 C 4.48 g/m*3 2.3 C 0 km/h
125 13-03-2010 00:56:03 2.3 C 4.48 g/m*3 2.3 C 0 km/h
Sensor: Nr:Datum:Temp:Abs-Feuchte:Windchill:Wind:
Aussen-T/F 126 13-03-2010 01:08:03 2.2 C 4.45 g/m*3 2.2 C 0 km/h
127 13-03-2010 01:20:03 2.2 C 4.39 g/m*3 2.2 C 0 km/h
128 13-03-2010 01:32:03 2.3 C 4.42 g/m*3 2.3 C 0 km/h
129 13-03-2010 01:44:03 2.2 C 4.39 g/m*3 2.2 C 0 km/h
130 13-03-2010 01:56:03 2.2 C 4.39 g/m*3 2.2 C 0 km/h
131 13-03-2010 02:08:03 2.2 C 4.39 g/m*3 2.2 C 0 km/h
132 13-03-2010 02:20:03 2.1 C 4.31 g/m*3 2.1 C 0 km/h
133 13-03-2010 02:32:03 2.2 C 4.34 g/m*3 2.2 C 0 km/h
134 13-03-2010 02:44:04 2.1 C 4.25 g/m*3 2.1 C 0 km/h
135 13-03-2010 02:56:04 2.2 C 4.28 g/m*3 2.2 C 0 km/h
136 13-03-2010 03:08:04 2.2 C 4.22 g/m*3 2.2 C 0 km/h
137 13-03-2010 03:20:04 2.2 C 4.22 g/m*3 2.2 C 0 km/h
138 13-03-2010 03:32:04 2.2 C 4.22 g/m*3 2.2 C 0 km/h
139 13-03-2010 03:44:04 2 C 4.17 g/m*3 2 C 0 km/h
140 13-03-2010 03:56:04 1.8 C 4.22 g/m*3 1.8 C 0 km/h
141 13-03-2010 04:08:04 1.9 C 4.19 g/m*3 1.9 C 0 km/h
142 13-03-2010 04:20:04 2 C 4.17 g/m*3 2 C 0 km/h
143 13-03-2010 04:32:04 2 C 4.17 g/m*3 2 C 0 km/h
144 13-03-2010 04:44:04 2 C 4.17 g/m*3 2 C 0 km/h
145 13-03-2010 04:56:04 2 C 4.17 g/m*3 2 C 0 km/h
146 13-03-2010 05:08:04 2 C 4.17 g/m*3 2 C 0 km/h
147 13-03-2010 05:20:04 1.8 C 4.17 g/m*3 1.8 C 0 km/h
148 13-03-2010 05:32:04 1.9 C 4.19 g/m*3 1.9 C 0 km/h
149 13-03-2010 05:44:04 2 C 4.11 g/m*3 2 C 0 km/h
150 13-03-2010 05:56:04 2 C 4.11 g/m*3 2 C 0 km/h
Sensor: Nr:Datum:Temp:Abs-Feuchte:Windchill:Wind:
Aussen-T/F 151 13-03-2010 06:08:04 2 C 4.11 g/m*3 2 C 0 km/h
152 13-03-2010 06:20:04 2.1 C 4.08 g/m*3 2.1 C 0 km/h
153 13-03-2010 06:32:04 2.2 C 4.11 g/m*3 2.2 C 0 km/h
154 13-03-2010 06:44:04 2.1 C 4.08 g/m*3 2.1 C 0 km/h
155 13-03-2010 06:56:02 2.3 C 4.2 g/m*3 2.3 C 0 km/h
156 13-03-2010 07:08:02 2.3 C 4.25 g/m*3 2.3 C 0 km/h
157 13-03-2010 07:20:02 2.3 C 4.31 g/m*3 2.3 C 0 km/h
158 13-03-2010 07:32:02 2.3 C 4.31 g/m*3 2.3 C 0 km/h
159 13-03-2010 07:44:02 2.4 C 4.45 g/m*3 2.4 C 0 km/h
160 13-03-2010 07:56:02 2.6 C 4.63 g/m*3 2.6 C 0 km/h
161 13-03-2010 08:08:02 2.7 C 4.66 g/m*3 2.7 C 0 km/h
162 13-03-2010 08:20:02 2.8 C 4.69 g/m*3 2.8 C 0 km/h
163 13-03-2010 08:32:02 2.9 C 4.72 g/m*3 2.9 C 0 km/h
164 13-03-2010 08:44:02 3.1 C 4.73 g/m*3 3.1 C 0 km/h
165 13-03-2010 08:56:02 3.3 C 4.73 g/m*3 3.3 C 0 km/h
166 13-03-2010 09:08:01 3.4 C 4.7 g/m*3 3.4 C 0 km/h
167 13-03-2010 09:20:02 3.4 C 4.64 g/m*3 3.4 C 0 km/h
168 13-03-2010 09:32:01 3.6 C 4.7 g/m*3 3.6 C 0 km/h
169 13-03-2010 09:44:01 3.6 C 4.7 g/m*3 3.6 C 0 km/h
170 13-03-2010 09:56:02 3.7 C 4.74 g/m*3 3.7 C 0 km/h
171 13-03-2010 10:08:01 4 C 4.7 g/m*3 4 C 0 km/h
172 13-03-2010 10:20:02 4.4 C 4.7 g/m*3 4.4 C 0 km/h
173 13-03-2010 10:32:02 4.8 C 4.69 g/m*3 4.8 C 0 km/h
174 13-03-2010 10:44:02 4.8 C 4.49 g/m*3 4.8 C 0 km/h
175 13-03-2010 10:56:02 5 C 4.42 g/m*3 5 C 0 km/h
Sensor: Nr:Datum:Temp:Abs-Feuchte:Windchill:Wind:
Aussen-T/F 176 13-03-2010 11:08:02 4.8 C 4.22 g/m*3 4.8 C 0 km/h
177 13-03-2010 11:20:02 4.7 C 4.26 g/m*3 4.7 C 0 km/h
178 13-03-2010 11:32:02 5.2 C 4.34 g/m*3 5.2 C 0 km/h
179 13-03-2010 11:44:02 5.3 C 4.23 g/m*3 5.3 C 0 km/h
180 13-03-2010 11:56:02 6 C 4.06 g/m*3 6 C 0 km/h
181 13-03-2010 12:08:02 6.5 C 4.05 g/m*3 6.5 C 0 km/h
182 13-03-2010 12:20:01 6.2 C 3.75 g/m*3 6.2 C 0 km/h
183 13-03-2010 12:32:02 5.8 C 3.72 g/m*3 5.8 C 0 km/h
184 13-03-2010 12:44:02 6.3 C 3.78 g/m*3 6.3 C 0 km/h
185 13-03-2010 12:56:02 6.7 C 3.72 g/m*3 6.7 C 0 km/h
186 13-03-2010 13:08:02 6.3 C 3.7 g/m*3 6.3 C 0 km/h
187 13-03-2010 13:20:02 6 C 3.7 g/m*3 6 C 0 km/h
188 13-03-2010 13:32:02 5.8 C 3.94 g/m*3 5.8 C 0 km/h
189 13-03-2010 13:44:02 5.8 C 4.01 g/m*3 5.8 C 0 km/h
190 13-03-2010 13:56:02 6.1 C 4.16 g/m*3 6.1 C 0 km/h
191 13-03-2010 14:08:02 6.3 C 4.07 g/m*3 6.3 C 0 km/h
192 13-03-2010 14:20:02 6.3 C 4.07 g/m*3 6.3 C 0 km/h
193 13-03-2010 14:32:02 6.1 C 4.02 g/m*3 6.1 C 0 km/h
194 13-03-2010 14:44:02 6.2 C 3.97 g/m*3 6.2 C 0 km/h
195 13-03-2010 14:56:02 6.3 C 4 g/m*3 6.3 C 0 km/h
196 13-03-2010 15:08:02 6.5 C 4.05 g/m*3 6.5 C 0 km/h
197 13-03-2010 15:20:02 6.5 C 3.9 g/m*3 6.5 C 0 km/h
198 13-03-2010 15:32:02 6.5 C 3.9 g/m*3 6.5 C 0 km/h
199 13-03-2010 15:44:02 6.7 C 4.03 g/m*3 6.7 C 0 km/h
200 13-03-2010 15:56:02 6.6 C 3.93 g/m*3 6.6 C 0 km/h
Sensor: Nr:Datum:Temp:Abs-Feuchte:Windchill:Wind:
Aussen-T/F 201 13-03-2010 16:08:02 6.6 C 3.93 g/m*3 6.6 C 0 km/h
202 13-03-2010 16:20:03 6.5 C 3.9 g/m*3 6.5 C 0 km/h
203 13-03-2010 16:32:02 6.5 C 3.9 g/m*3 6.5 C 0 km/h
204 13-03-2010 16:44:02 6.4 C 3.87 g/m*3 6.4 C 0 km/h
205 13-03-2010 16:56:02 6.4 C 3.95 g/m*3 6.4 C 0 km/h
206 13-03-2010 17:08:02 6.4 C 3.95 g/m*3 6.4 C 0 km/h
207 13-03-2010 17:20:02 6.3 C 3.92 g/m*3 6.3 C 0 km/h
208 13-03-2010 17:32:02 6.3 C 4 g/m*3 6.3 C 0 km/h
209 13-03-2010 17:44:02 6.2 C 3.97 g/m*3 6.2 C 0 km/h
210 13-03-2010 17:56:02 6.2 C 3.97 g/m*3 6.2 C 0 km/h
211 13-03-2010 18:08:02 6.2 C 3.97 g/m*3 6.2 C 0 km/h
212 13-03-2010 18:20:02 6.1 C 3.95 g/m*3 6.1 C 0 km/h
213 13-03-2010 18:32:01 6.1 C 3.95 g/m*3 6.1 C 0 km/h
214 13-03-2010 18:44:01 6 C 3.92 g/m*3 6 C 0 km/h
215 13-03-2010 18:56:02 6.1 C 3.95 g/m*3 6.1 C 0 km/h
216 13-03-2010 19:08:01 6 C 3.92 g/m*3 6 C 0 km/h
217 13-03-2010 19:20:02 6 C 3.99 g/m*3 6 C 0 km/h
218 13-03-2010 19:32:02 6 C 3.99 g/m*3 6 C 0 km/h
219 13-03-2010 19:44:02 6 C 3.99 g/m*3 6 C 0 km/h
220 13-03-2010 19:56:02 6 C 3.99 g/m*3 6 C 0 km/h
221 13-03-2010 20:08:01 5.8 C 4.08 g/m*3 5.8 C 0 km/h
222 13-03-2010 20:20:01 5.8 C 4.23 g/m*3 5.8 C 0 km/h
223 13-03-2010 20:32:02 5.5 C 4.28 g/m*3 5.5 C 0 km/h
224 13-03-2010 20:44:02 5.5 C 4.42 g/m*3 5.5 C 0 km/h
225 13-03-2010 20:56:02 5.6 C 4.45 g/m*3 5.6 C 0 km/h
Sensor: Nr:Datum:Temp:Abs-Feuchte:Windchill:Wind:
Aussen-T/F 226 13-03-2010 21:08:02 5.6 C 4.45 g/m*3 5.6 C 0 km/h
227 13-03-2010 21:20:02 5.5 C 4.35 g/m*3 5.5 C 0 km/h
228 13-03-2010 21:32:02 5.6 C 4.17 g/m*3 5.6 C 0 km/h
229 13-03-2010 21:44:02 5.5 C 4.07 g/m*3 5.5 C 0 km/h
230 13-03-2010 21:56:01 5.4 C 4.05 g/m*3 5.4 C 0 km/h
231 13-03-2010 22:08:02 5.3 C 4.02 g/m*3 5.3 C 0 km/h
232 13-03-2010 22:21:03 5.2 C 4.13 g/m*3 5.2 C 0 km/h
233 13-03-2010 22:33:04 5 C 4.21 g/m*3 5 C 0 km/h
234 13-03-2010 22:45:04 5 C 4.08 g/m*3 5 C 0 km/h
235 13-03-2010 22:57:04 5.2 C 3.79 g/m*3 5.2 C 0 km/h
236 13-03-2010 23:09:04 5.1 C 3.63 g/m*3 5.1 C 0 km/h
237 13-03-2010 23:21:04 5.1 C 3.63 g/m*3 5.1 C 0 km/h
238 13-03-2010 23:33:04 5.1 C 3.63 g/m*3 5.1 C 0 km/h
239 13-03-2010 23:45:04 5 C 3.67 g/m*3 5 C 0 km/h
240 13-03-2010 23:57:04 4.9 C 3.71 g/m*3 4.9 C 0 km/h
241 14-03-2010 00:09:04 4.8 C 3.62 g/m*3 4.8 C 0 km/h
242 14-03-2010 00:21:04 4.7 C 3.6 g/m*3 4.7 C 0 km/h
243 14-03-2010 00:33:04 4.7 C 3.6 g/m*3 4.7 C 0 km/h
244 14-03-2010 00:45:04 4.7 C 3.6 g/m*3 4.7 C 0 km/h
245 14-03-2010 00:57:04 4.6 C 3.57 g/m*3 4.6 C 0 km/h
246 14-03-2010 01:09:04 4.6 C 3.64 g/m*3 4.6 C 0 km/h
247 14-03-2010 01:21:04 4.5 C 3.68 g/m*3 4.5 C 0 km/h
248 14-03-2010 01:33:04 4.4 C 3.66 g/m*3 4.4 C 0 km/h
249 14-03-2010 01:45:04 4.3 C 3.7 g/m*3 4.3 C 0 km/h
250 14-03-2010 01:57:04 4.3 C 3.76 g/m*3 4.3 C 0 km/h
Sensor: Nr:Datum:Temp:Abs-Feuchte:Windchill:Wind:
Aussen-T/F 251 14-03-2010 02:09:04 4.3 C 3.76 g/m*3 4.3 C 0 km/h
252 14-03-2010 02:21:04 4.3 C 3.83 g/m*3 4.3 C 0 km/h
253 14-03-2010 02:33:04 4.3 C 3.83 g/m*3 4.3 C 0 km/h
254 14-03-2010 02:45:05 4.2 C 3.8 g/m*3 4.2 C 0 km/h
255 14-03-2010 02:57:05 4.3 C 3.83 g/m*3 4.3 C 0 km/h
256 14-03-2010 03:09:05 4.3 C 3.89 g/m*3 4.3 C 0 km/h
257 14-03-2010 03:21:05 4.3 C 3.89 g/m*3 4.3 C 0 km/h
258 14-03-2010 03:33:05 4.4 C 3.85 g/m*3 4.4 C 0 km/h
259 14-03-2010 03:45:05 4.4 C 3.85 g/m*3 4.4 C 0 km/h
260 14-03-2010 03:57:05 4.4 C 3.85 g/m*3 4.4 C 0 km/h
261 14-03-2010 04:09:05 4.4 C 3.85 g/m*3 4.4 C 0 km/h
262 14-03-2010 04:21:05 4.5 C 3.88 g/m*3 4.5 C 0 km/h
263 14-03-2010 04:33:05 4.4 C 3.92 g/m*3 4.4 C 0 km/h
264 14-03-2010 04:45:05 4.4 C 3.92 g/m*3 4.4 C 0 km/h
265 14-03-2010 04:57:05 4.3 C 3.96 g/m*3 4.3 C 0 km/h
266 14-03-2010 05:09:05 4.3 C 4.02 g/m*3 4.3 C 0 km/h
267 14-03-2010 05:21:05 4.3 C 4.02 g/m*3 4.3 C 0 km/h
268 14-03-2010 05:33:05 4.3 C 4.02 g/m*3 4.3 C 0 km/h
269 14-03-2010 05:45:05 4.2 C 3.99 g/m*3 4.2 C 0 km/h
270 14-03-2010 05:57:05 4.2 C 3.99 g/m*3 4.2 C 0 km/h
271 14-03-2010 06:09:05 4.3 C 4.02 g/m*3 4.3 C 0 km/h
272 14-03-2010 06:21:05 4.2 C 3.99 g/m*3 4.2 C 0 km/h
273 14-03-2010 06:33:05 4.2 C 3.99 g/m*3 4.2 C 0 km/h
274 14-03-2010 06:45:06 4.2 C 3.99 g/m*3 4.2 C 0 km/h
275 14-03-2010 06:57:06 4.2 C 4.06 g/m*3 4.2 C 0 km/h
Sensor: Nr:Datum:Temp:Abs-Feuchte:Windchill:Wind:
Aussen-T/F 276 14-03-2010 07:09:06 4.3 C 4.02 g/m*3 4.3 C 0 km/h
277 14-03-2010 07:21:06 4.3 C 4.02 g/m*3 4.3 C 0 km/h
278 14-03-2010 07:33:06 4.5 C 4.08 g/m*3 4.5 C 0 km/h
279 14-03-2010 07:45:06 4.6 C 4.04 g/m*3 4.6 C 0 km/h
280 14-03-2010 07:57:06 4.7 C 4 g/m*3 4.7 C 0 km/h
281 14-03-2010 08:09:06 4.8 C 3.96 g/m*3 4.8 C 0 km/h
282 14-03-2010 08:21:06 4.9 C 3.92 g/m*3 4.9 C 0 km/h
283 14-03-2010 08:33:06 5.2 C 3.86 g/m*3 5.2 C 0 km/h
284 14-03-2010 08:45:01 5.3 C 3.81 g/m*3 5.3 C 0 km/h
285 14-03-2010 08:57:01 5.4 C 3.77 g/m*3 5.4 C 0 km/h
286 14-03-2010 09:09:02 5.6 C 3.82 g/m*3 5.6 C 0 km/h
287 14-03-2010 09:21:01 5.7 C 3.77 g/m*3 5.7 C 0 km/h
288 14-03-2010 09:33:02 6 C 3.7 g/m*3 6 C 0 km/h
289 14-03-2010 09:45:02 5.9 C 3.75 g/m*3 5.9 C 0 km/h
290 14-03-2010 09:57:02 6 C 3.77 g/m*3 6 C 0 km/h
291 14-03-2010 10:09:02 6.3 C 3.78 g/m*3 6.3 C 0 km/h
292 14-03-2010 10:21:02 6.5 C 3.75 g/m*3 6.5 C 0 km/h
293 14-03-2010 10:33:02 6.8 C 3.82 g/m*3 6.8 C 0 km/h
294 14-03-2010 10:45:02 7 C 3.64 g/m*3 7 C 0 km/h
295 14-03-2010 10:57:02 6.9 C 3.7 g/m*3 6.9 C 0 km/h
296 14-03-2010 11:09:02 7.2 C 3.69 g/m*3 7.2 C 0 km/h
297 14-03-2010 11:21:02 7.5 C 3.76 g/m*3 7.5 C 0 km/h
298 14-03-2010 11:33:02 7.4 C 3.66 g/m*3 7.4 C 0 km/h
299 14-03-2010 11:45:01 7.5 C 3.76 g/m*3 7.5 C 0 km/h
300 14-03-2010 11:57:01 7.6 C 3.63 g/m*3 7.6 C 0 km/h
Sensor: Nr:Datum:Temp:Abs-Feuchte:Windchill:Wind:
Aussen-T/F 301 14-03-2010 12:09:02 7.8 C 3.51 g/m*3 7.8 C 0 km/h
302 14-03-2010 12:21:01 7.8 C 3.43 g/m*3 7.8 C 0 km/h
303 14-03-2010 12:33:01 7.7 C 3.49 g/m*3 7.7 C 0 km/h
304 14-03-2010 12:45:01 7.6 C 3.54 g/m*3 7.6 C 0 km/h
305 14-03-2010 12:57:01 7.6 C 3.63 g/m*3 7.6 C 0 km/h
306 14-03-2010 13:09:02 7.6 C 3.63 g/m*3 7.6 C 0 km/h
307 14-03-2010 13:21:01 7.7 C 3.73 g/m*3 7.7 C 0 km/h
308 14-03-2010 13:33:02 7.7 C 3.73 g/m*3 7.7 C 0 km/h
309 14-03-2010 13:45:02 7.5 C 3.76 g/m*3 7.5 C 0 km/h
310 14-03-2010 13:57:02 7.5 C 3.76 g/m*3 7.5 C 0 km/h
311 14-03-2010 14:09:02 7.4 C 3.74 g/m*3 7.4 C 0 km/h
312 14-03-2010 14:21:01 7.3 C 3.79 g/m*3 7.3 C 0 km/h
313 14-03-2010 14:33:02 7.4 C 3.82 g/m*3 7.4 C 0 km/h
314 14-03-2010 14:45:02 7.5 C 3.84 g/m*3 7.5 C 0 km/h
315 14-03-2010 14:57:02 7.5 C 3.84 g/m*3 7.5 C 0 km/h
316 14-03-2010 15:09:02 7.7 C 3.89 g/m*3 7.7 C 0 km/h
317 14-03-2010 15:21:02 7.7 C 3.89 g/m*3 7.7 C 0 km/h
318 14-03-2010 15:33:02 7.8 C 3.84 g/m*3 7.8 C 0 km/h
319 14-03-2010 15:45:02 7.8 C 3.92 g/m*3 7.8 C 0 km/h
320 14-03-2010 15:57:02 7.7 C 3.97 g/m*3 7.7 C 0 km/h
321 14-03-2010 16:09:02 7.6 C 3.95 g/m*3 7.6 C 0 km/h
322 14-03-2010 16:21:02 7.3 C 4.03 g/m*3 7.3 C 0 km/h
323 14-03-2010 16:33:02 7.2 C 4.08 g/m*3 7.2 C 0 km/h
324 14-03-2010 16:45:02 6.9 C 4.31 g/m*3 6.9 C 0 km/h
325 14-03-2010 16:57:02 6.5 C 4.27 g/m*3 6.5 C 0 km/h
Sensor: Nr:Datum:Temp:Abs-Feuchte:Windchill:Wind:
Aussen-T/F 326 14-03-2010 17:09:02 6.4 C 4.47 g/m*3 6.4 C 0 km/h
327 14-03-2010 17:21:02 6.7 C 4.18 g/m*3 6.7 C 0 km/h
328 14-03-2010 17:33:02 6.8 C 4.21 g/m*3 6.8 C 0 km/h
329 14-03-2010 17:45:02 6.6 C 4.23 g/m*3 6.6 C 0 km/h
330 14-03-2010 17:57:02 6.4 C 4.32 g/m*3 6.4 C 0 km/h
331 14-03-2010 18:09:02 6.4 C 4.4 g/m*3 6.4 C 0 km/h
332 14-03-2010 18:21:02 6.2 C 4.49 g/m*3 6.2 C 0 km/h
333 14-03-2010 18:33:02 5.9 C 4.61 g/m*3 5.9 C 0 km/h
334 14-03-2010 18:45:02 5.7 C 4.84 g/m*3 5.7 C 0 km/h
335 14-03-2010 18:57:02 5.4 C 4.95 g/m*3 5.4 C 0 km/h
336 14-03-2010 19:09:01 5.4 C 4.95 g/m*3 5.4 C 0 km/h
337 14-03-2010 19:21:02 5.4 C 4.95 g/m*3 5.4 C 0 km/h
338 14-03-2010 19:33:01 5.6 C 5.02 g/m*3 5.6 C 0 km/h
339 14-03-2010 19:45:02 5.7 C 4.98 g/m*3 5.7 C 0 km/h
340 14-03-2010 19:57:02 5.8 C 4.94 g/m*3 5.8 C 0 km/h
341 14-03-2010 20:09:01 5.7 C 4.91 g/m*3 5.7 C 0 km/h
342 14-03-2010 20:21:02 5.7 C 4.84 g/m*3 5.7 C 0 km/h
343 14-03-2010 20:33:01 5.7 C 4.77 g/m*3 5.7 C 0 km/h
344 14-03-2010 20:45:02 5.8 C 4.73 g/m*3 5.8 C 0 km/h
345 14-03-2010 20:57:02 5.7 C 4.63 g/m*3 5.7 C 0 km/h
346 14-03-2010 21:09:02 5.7 C 4.55 g/m*3 5.7 C 0 km/h
347 14-03-2010 21:21:02 5.7 C 4.55 g/m*3 5.7 C 0 km/h
348 14-03-2010 21:33:02 5.9 C 4.4 g/m*3 5.9 C 0 km/h
349 14-03-2010 21:46:05 5.8 C 4.37 g/m*3 5.8 C 0 km/h
350 14-03-2010 21:58:06 5.8 C 4.3 g/m*3 5.8 C 0 km/h
Sensor: Nr:Datum:Temp:Abs-Feuchte:Windchill:Wind:
Aussen-T/F 351 14-03-2010 22:10:06 5.8 C 4.3 g/m*3 5.8 C 0 km/h
352 14-03-2010 22:22:06 5.9 C 4.33 g/m*3 5.9 C 0 km/h
353 14-03-2010 22:34:06 5.8 C 4.3 g/m*3 5.8 C 0 km/h
354 14-03-2010 22:46:06 5.9 C 4.33 g/m*3 5.9 C 0 km/h
355 14-03-2010 22:58:06 5.9 C 4.33 g/m*3 5.9 C 0 km/h
356 14-03-2010 23:10:06 6.1 C 4.31 g/m*3 6.1 C 0 km/h
357 14-03-2010 23:22:06 6 C 4.5 g/m*3 6 C 0 km/h
358 14-03-2010 23:34:06 5.8 C 4.58 g/m*3 5.8 C 0 km/h
359 14-03-2010 23:46:06 6.1 C 4.75 g/m*3 6.1 C 0 km/h
360 14-03-2010 23:58:06 5.7 C 4.77 g/m*3 5.7 C 0 km/h
361 15-03-2010 00:10:06 5.8 C 4.73 g/m*3 5.8 C 0 km/h
362 15-03-2010 00:22:06 5.8 C 4.73 g/m*3 5.8 C 0 km/h
363 15-03-2010 00:34:06 5.9 C 4.76 g/m*3 5.9 C 0 km/h
364 15-03-2010 00:46:06 5.8 C 4.8 g/m*3 5.8 C 0 km/h
365 15-03-2010 00:58:06 5.8 C 4.73 g/m*3 5.8 C 0 km/h
366 15-03-2010 01:10:06 5.8 C 4.73 g/m*3 5.8 C 0 km/h
367 15-03-2010 01:22:06 5.8 C 4.73 g/m*3 5.8 C 0 km/h
368 15-03-2010 01:34:06 5.7 C 4.63 g/m*3 5.7 C 0 km/h
369 15-03-2010 01:46:06 5.7 C 4.7 g/m*3 5.7 C 0 km/h
370 15-03-2010 01:58:07 5.7 C 4.77 g/m*3 5.7 C 0 km/h
371 15-03-2010 02:10:07 5.4 C 4.81 g/m*3 5.4 C 0 km/h
372 15-03-2010 02:22:07 5.2 C 4.82 g/m*3 5.2 C 0 km/h
373 15-03-2010 02:34:07 4.9 C 4.93 g/m*3 4.9 C 0 km/h
374 15-03-2010 02:46:07 4.8 C 5.03 g/m*3 4.8 C 0 km/h
375 15-03-2010 02:58:07 4.7 C 5 g/m*3 4.7 C 0 km/h
Sensor: Nr:Datum:Temp:Abs-Feuchte:Windchill:Wind:
Aussen-T/F 376 15-03-2010 03:10:07 5 C 4.76 g/m*3 5 C 0 km/h
377 15-03-2010 03:22:07 5 C 4.69 g/m*3 5 C 0 km/h
378 15-03-2010 03:34:07 4.9 C 4.79 g/m*3 4.9 C 0 km/h
379 15-03-2010 03:46:07 4.8 C 4.69 g/m*3 4.8 C 0 km/h
380 15-03-2010 03:58:07 4.7 C 4.73 g/m*3 4.7 C 0 km/h
381 15-03-2010 04:10:07 4.6 C 4.63 g/m*3 4.6 C 0 km/h
382 15-03-2010 04:22:07 4.6 C 4.63 g/m*3 4.6 C 0 km/h
383 15-03-2010 04:34:07 4.6 C 4.63 g/m*3 4.6 C 0 km/h
384 15-03-2010 04:46:07 4.6 C 4.57 g/m*3 4.6 C 0 km/h
385 15-03-2010 04:58:07 4.7 C 4.6 g/m*3 4.7 C 0 km/h
386 15-03-2010 05:10:07 4.6 C 4.5 g/m*3 4.6 C 0 km/h
387 15-03-2010 05:22:07 4.6 C 4.57 g/m*3 4.6 C 0 km/h
388 15-03-2010 05:34:07 4.6 C 4.43 g/m*3 4.6 C 0 km/h
389 15-03-2010 05:46:07 4.7 C 4.33 g/m*3 4.7 C 0 km/h
390 15-03-2010 05:58:07 4.7 C 4.33 g/m*3 4.7 C 0 km/h
391 15-03-2010 06:10:08 4.7 C 4.26 g/m*3 4.7 C 0 km/h
392 15-03-2010 06:22:03 4.7 C 4.2 g/m*3 4.7 C 0 km/h
393 15-03-2010 06:34:04 4.6 C 4.17 g/m*3 4.6 C 0 km/h
394 15-03-2010 06:46:02 4.6 C 4.23 g/m*3 4.6 C 0 km/h
395 15-03-2010 06:58:02 4.7 C 4.2 g/m*3 4.7 C 0 km/h
396 15-03-2010 07:10:02 4.4 C 4.37 g/m*3 4.4 C 0 km/h
397 15-03-2010 07:22:02 4 C 4.64 g/m*3 4 C 0 km/h
398 15-03-2010 07:34:02 3.7 C 4.86 g/m*3 3.7 C 0 km/h
399 15-03-2010 07:46:02 3.6 C 4.95 g/m*3 3.6 C 0 km/h
400 15-03-2010 07:58:02 3.7 C 5.11 g/m*3 3.7 C 0 km/h
Sensor: Nr:Datum:Temp:Abs-Feuchte:Windchill:Wind:
Aussen-T/F 401 15-03-2010 08:10:02 3.8 C 5.21 g/m*3 3.8 C 0 km/h
402 15-03-2010 08:22:02 3.7 C 5.23 g/m*3 3.7 C 0 km/h
403 15-03-2010 08:34:02 3.8 C 5.33 g/m*3 3.8 C 0 km/h
404 15-03-2010 08:46:02 4 C 5.4 g/m*3 4 C 0 km/h
405 15-03-2010 08:58:02 4.2 C 5.54 g/m*3 4.2 C 0 km/h
406 15-03-2010 09:10:02 4.3 C 5.51 g/m*3 4.3 C 0 km/h
407 15-03-2010 09:22:02 4.3 C 5.51 g/m*3 4.3 C 0 km/h
408 15-03-2010 09:34:02 4.4 C 5.55 g/m*3 4.4 C 0 km/h
409 15-03-2010 09:46:02 4.6 C 5.62 g/m*3 4.6 C 0 km/h
410 15-03-2010 09:58:02 4.5 C 5.52 g/m*3 4.5 C 0 km/h
411 15-03-2010 10:10:02 4.5 C 5.52 g/m*3 4.5 C 0 km/h
412 15-03-2010 10:22:02 4.6 C 5.56 g/m*3 4.6 C 0 km/h
413 15-03-2010 10:34:02 5.1 C 5.61 g/m*3 5.1 C 0 km/h
414 15-03-2010 10:46:02 5.5 C 5.48 g/m*3 5.5 C 0 km/h
415 15-03-2010 10:58:02 6 C 5.44 g/m*3 6 C 0 km/h
416 15-03-2010 11:10:02 5.9 C 5.26 g/m*3 5.9 C 0 km/h
417 15-03-2010 11:22:02 6 C 5.08 g/m*3 6 C 0 km/h
418 15-03-2010 11:34:01 5.9 C 5.05 g/m*3 5.9 C 0 km/h
419 15-03-2010 11:46:02 5.9 C 4.98 g/m*3 5.9 C 0 km/h
420 15-03-2010 11:58:02 6 C 4.94 g/m*3 6 C 0 km/h
421 15-03-2010 12:10:01 6 C 4.79 g/m*3 6 C 0 km/h
422 15-03-2010 12:22:02 6.6 C 4.98 g/m*3 6.6 C 0 km/h
423 15-03-2010 12:34:01 7.4 C 4.85 g/m*3 7.4 C 0 km/h
424 15-03-2010 12:46:02 7.8 C 4.98 g/m*3 7.8 C 0 km/h
425 15-03-2010 12:58:02 8.5 C 4.87 g/m*3 8.5 C 0 km/h
Sensor: Nr:Datum:Temp:Abs-Feuchte:Windchill:Wind:
Aussen-T/F 426 15-03-2010 13:10:02 9.3 C 4.67 g/m*3 9.3 C 0 km/h
427 15-03-2010 13:22:02 9 C 4.58 g/m*3 9 C 0 km/h
428 15-03-2010 13:34:02 9.4 C 4.61 g/m*3 9.4 C 0 km/h
429 15-03-2010 13:46:02 9.9 C 4.58 g/m*3 9.9 C 0 km/h
430 15-03-2010 13:58:03 9.7 C 4.33 g/m*3 9.7 C 0 km/h
431 15-03-2010 14:10:01 10.1 C 4.35 g/m*3 10.1 C 0 km/h
432 15-03-2010 14:22:01 10 C 4.04 g/m*3 10 C 0 km/h
433 15-03-2010 14:34:02 10.4 C 3.95 g/m*3 10.4 C 0 km/h
434 15-03-2010 14:46:02 10.5 C 4.07 g/m*3 10.5 C 0 km/h
435 15-03-2010 14:58:02 10.3 C 4.02 g/m*3 10.3 C 0 km/h
436 15-03-2010 15:10:01 10.4 C 4.05 g/m*3 10.4 C 0 km/h
437 15-03-2010 15:22:02 11 C 4.1 g/m*3 11 C 0 km/h
438 15-03-2010 15:34:02 10.5 C 3.98 g/m*3 10.5 C 0 km/h
439 15-03-2010 15:46:02 10.4 C 4.05 g/m*3 10.4 C 0 km/h
440 15-03-2010 15:58:02 10.1 C 4.07 g/m*3 10.1 C 0 km/h
441 15-03-2010 16:10:03 9.9 C 4.2 g/m*3 9.9 C 0 km/h
442 15-03-2010 16:22:02 10 C 4.23 g/m*3 10 C 0 km/h
443 15-03-2010 16:34:02 9.9 C 4.29 g/m*3 9.9 C 0 km/h
444 15-03-2010 16:46:01 9.8 C 4.27 g/m*3 9.8 C 0 km/h
445 15-03-2010 16:58:01 9.7 C 4.43 g/m*3 9.7 C 0 km/h
446 15-03-2010 17:10:02 9.6 C 4.4 g/m*3 9.6 C 0 km/h
447 15-03-2010 17:22:01 9.2 C 4.55 g/m*3 9.2 C 0 km/h
448 15-03-2010 17:34:01 8.6 C 4.98 g/m*3 8.6 C 0 km/h
449 15-03-2010 17:46:01 8.3 C 5.06 g/m*3 8.3 C 0 km/h
450 15-03-2010 17:58:01 8.2 C 4.94 g/m*3 8.2 C 0 km/h
Sensor: Nr:Datum:Temp:Abs-Feuchte:Windchill:Wind:
Aussen-T/F 451 15-03-2010 18:10:02 8.2 C 5.11 g/m*3 8.2 C 0 km/h
452 15-03-2010 18:22:01 8.1 C 5.16 g/m*3 8.1 C 0 km/h
453 15-03-2010 18:34:02 8 C 5.21 g/m*3 8 C 0 km/h
454 15-03-2010 18:46:01 8.1 C 5.08 g/m*3 8.1 C 0 km/h
455 15-03-2010 18:58:01 7.7 C 5.27 g/m*3 7.7 C 0 km/h
456 15-03-2010 19:10:02 7.5 C 5.36 g/m*3 7.5 C 0 km/h
457 15-03-2010 19:22:01 7.2 C 5.42 g/m*3 7.2 C 0 km/h
458 15-03-2010 19:34:02 7.1 C 5.46 g/m*3 7.1 C 0 km/h
459 15-03-2010 19:46:01 7 C 5.5 g/m*3 7 C 0 km/h
460 15-03-2010 19:58:01 7 C 5.58 g/m*3 7 C 0 km/h
461 15-03-2010 20:10:02 6.7 C 5.77 g/m*3 6.7 C 0 km/h
462 15-03-2010 20:22:01 6.8 C 5.81 g/m*3 6.8 C 0 km/h
463 15-03-2010 20:34:02 6.9 C 5.62 g/m*3 6.9 C 0 km/h
464 15-03-2010 20:46:01 6.8 C 5.58 g/m*3 6.8 C 0 km/h
465 15-03-2010 20:58:01 6.8 C 5.58 g/m*3 6.8 C 0 km/h
466 15-03-2010 21:10:02 6.9 C 5.47 g/m*3 6.9 C 0 km/h
467 15-03-2010 21:22:02 6.6 C 5.59 g/m*3 6.6 C 0 km/h
468 15-03-2010 21:34:02 6.4 C 5.66 g/m*3 6.4 C 0 km/h
469 15-03-2010 21:46:01 6.3 C 5.85 g/m*3 6.3 C 0 km/h
470 15-03-2010 21:58:01 6.2 C 5.81 g/m*3 6.2 C 0 km/h
471 15-03-2010 22:10:01 6.1 C 5.77 g/m*3 6.1 C 0 km/h
472 15-03-2010 22:23:02 6 C 5.73 g/m*3 6 C 0 km/h
473 15-03-2010 22:35:02 6 C 5.88 g/m*3 6 C 0 km/h
474 15-03-2010 22:47:02 5.8 C 5.95 g/m*3 5.8 C 0 km/h
475 15-03-2010 22:59:02 5.8 C 6.02 g/m*3 5.8 C 0 km/h
Sensor: Nr:Datum:Temp:Abs-Feuchte:Windchill:Wind:
Aussen-T/F 476 15-03-2010 23:11:02 5.7 C 6.05 g/m*3 5.7 C 0 km/h
477 15-03-2010 23:23:02 5.6 C 6.08 g/m*3 5.6 C 0 km/h
478 15-03-2010 23:35:03 5.5 C 6.11 g/m*3 5.5 C 0 km/h
479 15-03-2010 23:47:03 5.5 C 6.11 g/m*3 5.5 C 0 km/h
480 15-03-2010 23:59:03 5.4 C 6.07 g/m*3 5.4 C 0 km/h
481 16-03-2010 00:11:03 5.4 C 6.14 g/m*3 5.4 C 0 km/h
482 16-03-2010 00:23:03 5.4 C 6.14 g/m*3 5.4 C 0 km/h
483 16-03-2010 00:35:03 5.3 C 6.1 g/m*3 5.3 C 0 km/h
484 16-03-2010 00:47:03 5.2 C 6.13 g/m*3 5.2 C 0 km/h
485 16-03-2010 00:59:03 5.1 C 6.09 g/m*3 5.1 C 0 km/h
486 16-03-2010 01:11:03 5 C 5.98 g/m*3 5 C 0 km/h
487 16-03-2010 01:23:03 5 C 6.05 g/m*3 5 C 0 km/h
488 16-03-2010 01:35:03 5 C 6.05 g/m*3 5 C 0 km/h
489 16-03-2010 01:47:03 5 C 6.05 g/m*3 5 C 0 km/h
490 16-03-2010 01:59:03 5 C 6.05 g/m*3 5 C 0 km/h
491 16-03-2010 02:11:03 5 C 6.12 g/m*3 5 C 0 km/h
492 16-03-2010 02:23:03 4.9 C 6.08 g/m*3 4.9 C 0 km/h
493 16-03-2010 02:35:03 4.9 C 6.08 g/m*3 4.9 C 0 km/h
494 16-03-2010 02:47:03 4.9 C 6.08 g/m*3 4.9 C 0 km/h
495 16-03-2010 02:59:03 4.8 C 5.97 g/m*3 4.8 C 0 km/h
496 16-03-2010 03:11:03 4.8 C 5.97 g/m*3 4.8 C 0 km/h
497 16-03-2010 03:23:03 4.7 C 5.93 g/m*3 4.7 C 0 km/h
498 16-03-2010 03:35:04 4.8 C 6.04 g/m*3 4.8 C 0 km/h
499 16-03-2010 03:47:04 4.8 C 6.04 g/m*3 4.8 C 0 km/h
500 16-03-2010 03:59:04 4.8 C 6.1 g/m*3 4.8 C 0 km/h
Sensor: Nr:Datum:Temp:Abs-Feuchte:Windchill:Wind:
Aussen-T/F 501 16-03-2010 04:11:04 4.8 C 6.1 g/m*3 4.8 C 0 km/h
502 16-03-2010 04:23:04 4.8 C 6.1 g/m*3 4.8 C 0 km/h
503 16-03-2010 04:35:04 4.7 C 6.06 g/m*3 4.7 C 0 km/h
504 16-03-2010 04:47:04 4.8 C 6.1 g/m*3 4.8 C 0 km/h
505 16-03-2010 04:59:04 4.7 C 6.06 g/m*3 4.7 C 0 km/h
506 16-03-2010 05:11:04 4.7 C 6.06 g/m*3 4.7 C 0 km/h
507 16-03-2010 05:23:04 4.7 C 6.13 g/m*3 4.7 C 0 km/h
508 16-03-2010 05:35:04 4.7 C 6.13 g/m*3 4.7 C 0 km/h
509 16-03-2010 05:47:04 4.6 C 6.02 g/m*3 4.6 C 0 km/h
510 16-03-2010 05:59:04 4.6 C 6.02 g/m*3 4.6 C 0 km/h
511 16-03-2010 06:11:04 4.6 C 6.02 g/m*3 4.6 C 0 km/h
512 16-03-2010 06:23:04 4.6 C 5.96 g/m*3 4.6 C 0 km/h
513 16-03-2010 06:35:04 4.6 C 5.96 g/m*3 4.6 C 0 km/h
514 16-03-2010 06:47:04 4.7 C 6.06 g/m*3 4.7 C 0 km/h
515 16-03-2010 06:59:04 4.7 C 6.06 g/m*3 4.7 C 0 km/h
516 16-03-2010 07:11:02 4.7 C 6.06 g/m*3 4.7 C 0 km/h
517 16-03-2010 07:23:01 4.8 C 6.1 g/m*3 4.8 C 0 km/h
518 16-03-2010 07:35:02 4.9 C 6.21 g/m*3 4.9 C 0 km/h
519 16-03-2010 07:47:02 5 C 6.18 g/m*3 5 C 0 km/h
520 16-03-2010 07:59:02 5 C 6.18 g/m*3 5 C 0 km/h
521 16-03-2010 08:11:02 5 C 6.18 g/m*3 5 C 0 km/h
522 16-03-2010 08:23:02 5.1 C 6.22 g/m*3 5.1 C 0 km/h
523 16-03-2010 08:35:02 5.3 C 6.31 g/m*3 5.3 C 0 km/h
524 16-03-2010 08:47:02 5.3 C 6.24 g/m*3 5.3 C 0 km/h
525 16-03-2010 08:59:02 5.5 C 6.32 g/m*3 5.5 C 0 km/h
Sensor: Nr:Datum:Temp:Abs-Feuchte:Windchill:Wind:
Aussen-T/F 526 16-03-2010 09:11:01 5.7 C 6.4 g/m*3 5.7 C 0 km/h
527 16-03-2010 09:23:02 6 C 6.46 g/m*3 6 C 0 km/h
528 16-03-2010 09:35:01 6.4 C 6.48 g/m*3 6.4 C 0 km/h
529 16-03-2010 09:47:02 6.4 C 6.26 g/m*3 6.4 C 0 km/h
530 16-03-2010 09:59:02 6.6 C 6.11 g/m*3 6.6 C 0 km/h
531 16-03-2010 10:11:01 6.7 C 6 g/m*3 6.7 C 0 km/h
532 16-03-2010 10:23:01 6.8 C 5.97 g/m*3 6.8 C 0 km/h
533 16-03-2010 10:35:02 6.8 C 5.81 g/m*3 6.8 C 0 km/h
534 16-03-2010 10:47:02 6.8 C 5.66 g/m*3 6.8 C 0 km/h
535 16-03-2010 10:59:03 6.9 C 5.7 g/m*3 6.9 C 0 km/h
536 16-03-2010 11:11:01 7.1 C 5.62 g/m*3 7.1 C 0 km/h
537 16-03-2010 11:23:02 7.5 C 5.44 g/m*3 7.5 C 0 km/h
538 16-03-2010 11:35:02 8.1 C 5.41 g/m*3 8.1 C 0 km/h
539 16-03-2010 11:47:02 8.5 C 5.29 g/m*3 8.5 C 0 km/h
540 16-03-2010 11:59:02 8.7 C 5.1 g/m*3 8.7 C 0 km/h
541 16-03-2010 12:11:03 8.7 C 5.1 g/m*3 8.7 C 0 km/h
542 16-03-2010 12:23:02 8.9 C 5.26 g/m*3 8.9 C 0 km/h
543 16-03-2010 12:35:02 8.4 C 5.17 g/m*3 8.4 C 0 km/h
544 16-03-2010 12:47:02 7.9 C 5.34 g/m*3 7.9 C 0 km/h
545 16-03-2010 12:59:02 7.8 C 5.39 g/m*3 7.8 C 0 km/h
546 16-03-2010 13:11:02 8 C 5.29 g/m*3 8 C 0 km/h
547 16-03-2010 13:23:01 7.8 C 5.14 g/m*3 7.8 C 0 km/h
548 16-03-2010 13:35:02 8.7 C 5.45 g/m*3 8.7 C 0 km/h
549 16-03-2010 13:47:02 8.2 C 5.11 g/m*3 8.2 C 0 km/h
550 16-03-2010 13:59:02 8.1 C 5.08 g/m*3 8.1 C 0 km/h
Sensor: Nr:Datum:Temp:Abs-Feuchte:Windchill:Wind:
Aussen-T/F 551 16-03-2010 14:11:02 8.1 C 5.16 g/m*3 8.1 C 0 km/h
552 16-03-2010 14:23:01 8.7 C 5.36 g/m*3 8.7 C 0 km/h
553 16-03-2010 14:35:02 8.7 C 5.1 g/m*3 8.7 C 0 km/h
554 16-03-2010 14:47:02 8.2 C 4.94 g/m*3 8.2 C 0 km/h
555 16-03-2010 14:59:02 8.1 C 4.99 g/m*3 8.1 C 0 km/h
556 16-03-2010 15:11:02 8.1 C 5.08 g/m*3 8.1 C 0 km/h
557 16-03-2010 15:23:01 8.5 C 5.12 g/m*3 8.5 C 0 km/h
558 16-03-2010 15:35:02 8.6 C 4.81 g/m*3 8.6 C 0 km/h
559 16-03-2010 15:47:01 8.8 C 4.79 g/m*3 8.8 C 0 km/h
560 16-03-2010 15:59:01 9 C 4.85 g/m*3 9 C 0 km/h
561 16-03-2010 16:11:02 8.7 C 4.76 g/m*3 8.7 C 0 km/h
562 16-03-2010 16:23:02 8.5 C 4.78 g/m*3 8.5 C 0 km/h
563 16-03-2010 16:35:02 8.7 C 4.84 g/m*3 8.7 C 0 km/h
564 16-03-2010 16:47:02 8.7 C 4.84 g/m*3 8.7 C 0 km/h
565 16-03-2010 16:59:02 8.7 C 4.84 g/m*3 8.7 C 0 km/h
566 16-03-2010 17:11:02 8.9 C 4.99 g/m*3 8.9 C 0 km/h
567 16-03-2010 17:23:02 8.8 C 5.05 g/m*3 8.8 C 0 km/h
568 16-03-2010 17:35:01 8.6 C 4.98 g/m*3 8.6 C 0 km/h
569 16-03-2010 17:47:02 8.6 C 4.98 g/m*3 8.6 C 0 km/h
570 16-03-2010 17:59:02 8.4 C 5.01 g/m*3 8.4 C 0 km/h
571 16-03-2010 18:11:01 8.2 C 5.28 g/m*3 8.2 C 0 km/h
572 16-03-2010 18:23:02 8 C 5.37 g/m*3 8 C 0 km/h
573 16-03-2010 18:35:01 7.8 C 5.55 g/m*3 7.8 C 0 km/h
574 16-03-2010 18:47:02 7.5 C 5.52 g/m*3 7.5 C 0 km/h
575 16-03-2010 18:59:02 7.3 C 5.53 g/m*3 7.3 C 0 km/h
Sensor: Nr:Datum:Temp:Abs-Feuchte:Windchill:Wind:
Aussen-T/F 576 16-03-2010 19:11:02 7.1 C 5.46 g/m*3 7.1 C 0 km/h
577 16-03-2010 19:23:02 7 C 5.58 g/m*3 7 C 0 km/h
578 16-03-2010 19:35:03 6.9 C 5.62 g/m*3 6.9 C 0 km/h
579 16-03-2010 19:47:02 6.8 C 5.58 g/m*3 6.8 C 0 km/h
580 16-03-2010 19:59:02 6.6 C 5.51 g/m*3 6.6 C 0 km/h
581 16-03-2010 20:11:01 6.2 C 5.37 g/m*3 6.2 C 0 km/h
582 16-03-2010 20:23:02 5.7 C 5.34 g/m*3 5.7 C 0 km/h
583 16-03-2010 20:35:02 5.3 C 5.2 g/m*3 5.3 C 0 km/h
584 16-03-2010 20:47:02 4.9 C 5.2 g/m*3 4.9 C 0 km/h
585 16-03-2010 20:59:03 4.6 C 5.16 g/m*3 4.6 C 0 km/h
586 16-03-2010 21:11:01 4.4 C 5.09 g/m*3 4.4 C 0 km/h
587 16-03-2010 21:23:01 4.2 C 5.03 g/m*3 4.2 C 0 km/h
588 16-03-2010 21:36:04 4 C 5.02 g/m*3 4 C 0 km/h
589 16-03-2010 21:48:04 3.8 C 5.02 g/m*3 3.8 C 0 km/h
590 16-03-2010 22:00:04 3.7 C 5.05 g/m*3 3.7 C 0 km/h
591 16-03-2010 22:12:04 3.3 C 4.91 g/m*3 3.3 C 0 km/h
592 16-03-2010 22:24:04 3.2 C 4.88 g/m*3 3.2 C 0 km/h
593 16-03-2010 22:36:04 2.9 C 4.84 g/m*3 2.9 C 0 km/h
594 16-03-2010 22:48:04 2.8 C 4.81 g/m*3 2.8 C 0 km/h
595 16-03-2010 23:00:04 2.7 C 4.78 g/m*3 2.7 C 0 km/h
596 16-03-2010 23:12:04 2.5 C 4.71 g/m*3 2.5 C 0 km/h
597 16-03-2010 23:24:04 2.4 C 4.74 g/m*3 2.4 C 0 km/h
598 16-03-2010 23:36:04 2.2 C 4.68 g/m*3 2.2 C 0 km/h
599 16-03-2010 23:48:04 2 C 4.61 g/m*3 2 C 0 km/h
600 17-03-2010 00:00:04 2.3 C 4.76 g/m*3 2.3 C 0 km/h
Sensor: Nr:Datum:Temp:Abs-Feuchte:Windchill:Wind:
Aussen-T/F 601 17-03-2010 00:12:04 2 C 4.67 g/m*3 2 C 0 km/h
602 17-03-2010 00:24:05 2.2 C 4.73 g/m*3 2.2 C 0 km/h
603 17-03-2010 00:36:05 2.3 C 4.82 g/m*3 2.3 C 0 km/h
604 17-03-2010 00:48:05 2.3 C 4.76 g/m*3 2.3 C 0 km/h
605 17-03-2010 01:00:05 2.3 C 4.76 g/m*3 2.3 C 0 km/h
606 17-03-2010 01:12:05 2.3 C 4.76 g/m*3 2.3 C 0 km/h
607 17-03-2010 01:24:05 1.8 C 4.6 g/m*3 1.8 C 0 km/h
608 17-03-2010 01:36:05 1.6 C 4.54 g/m*3 1.6 C 0 km/h
609 17-03-2010 01:48:05 1.7 C 4.63 g/m*3 1.7 C 0 km/h
610 17-03-2010 02:00:05 2 C 4.67 g/m*3 2 C 0 km/h
611 17-03-2010 02:12:05 2 C 4.67 g/m*3 2 C 0 km/h
612 17-03-2010 02:24:05 2.1 C 4.64 g/m*3 2.1 C 0 km/h
613 17-03-2010 02:36:05 2.1 C 4.64 g/m*3 2.1 C 0 km/h
614 17-03-2010 02:48:05 2.1 C 4.59 g/m*3 2.1 C 0 km/h
615 17-03-2010 03:00:05 2.2 C 4.62 g/m*3 2.2 C 0 km/h
616 17-03-2010 03:12:05 2 C 4.56 g/m*3 2 C 0 km/h
617 17-03-2010 03:24:05 2.1 C 4.59 g/m*3 2.1 C 0 km/h
618 17-03-2010 03:36:05 2 C 4.56 g/m*3 2 C 0 km/h
619 17-03-2010 03:48:05 2.1 C 4.59 g/m*3 2.1 C 0 km/h
620 17-03-2010 04:00:05 2 C 4.56 g/m*3 2 C 0 km/h
621 17-03-2010 04:12:05 1.9 C 4.58 g/m*3 1.9 C 0 km/h
622 17-03-2010 04:24:05 1.7 C 4.46 g/m*3 1.7 C 0 km/h
623 17-03-2010 04:36:06 1.4 C 4.37 g/m*3 1.4 C 0 km/h
624 17-03-2010 04:48:06 1.1 C 4.34 g/m*3 1.1 C 0 km/h
625 17-03-2010 05:00:06 1 C 4.31 g/m*3 1 C 0 km/h
Sensor: Nr:Datum:Temp:Abs-Feuchte:Windchill:Wind:
Aussen-T/F 626 17-03-2010 05:12:06 0.8 C 4.3 g/m*3 0.8 C 0 km/h
627 17-03-2010 05:24:06 0.8 C 4.35 g/m*3 0.8 C 0 km/h
628 17-03-2010 05:36:06 0.7 C 4.32 g/m*3 0.7 C 0 km/h
629 17-03-2010 05:48:06 0.7 C 4.37 g/m*3 0.7 C 0 km/h
630 17-03-2010 06:00:06 0.6 C 4.34 g/m*3 0.6 C 0 km/h
631 17-03-2010 06:12:06 0.5 C 4.31 g/m*3 0.5 C 0 km/h
632 17-03-2010 06:24:06 0.6 C 4.39 g/m*3 0.6 C 0 km/h
633 17-03-2010 06:36:06 0.4 C 4.33 g/m*3 0.4 C 0 km/h
634 17-03-2010 06:48:02 0.6 C 4.39 g/m*3 0.6 C 0 km/h
635 17-03-2010 07:00:02 0.5 C 4.36 g/m*3 0.5 C 0 km/h
636 17-03-2010 07:12:02 0.6 C 4.44 g/m*3 0.6 C 0 km/h
637 17-03-2010 07:24:03 0.8 C 4.51 g/m*3 0.8 C 0 km/h
638 17-03-2010 07:36:02 1.2 C 4.63 g/m*3 1.2 C 0 km/h
639 17-03-2010 07:48:02 1.5 C 4.73 g/m*3 1.5 C 0 km/h
640 17-03-2010 08:00:02 1.6 C 4.7 g/m*3 1.6 C 0 km/h
641 17-03-2010 08:12:02 1.8 C 4.77 g/m*3 1.8 C 0 km/h
642 17-03-2010 08:24:02 2 C 4.72 g/m*3 2 C 0 km/h
643 17-03-2010 08:36:02 2.3 C 4.76 g/m*3 2.3 C 0 km/h
644 17-03-2010 08:48:02 2.6 C 4.8 g/m*3 2.6 C 0 km/h
645 17-03-2010 09:00:02 2.9 C 4.67 g/m*3 2.9 C 0 km/h
646 17-03-2010 09:12:02 3.5 C 4.67 g/m*3 3.5 C 0 km/h
647 17-03-2010 09:24:03 4.2 C 4.77 g/m*3 4.2 C 0 km/h
648 17-03-2010 09:36:02 4.6 C 4.5 g/m*3 4.6 C 0 km/h
649 17-03-2010 09:48:02 4.8 C 4.36 g/m*3 4.8 C 0 km/h
650 17-03-2010 10:00:02 5.2 C 4.41 g/m*3 5.2 C 0 km/h
Sensor: Nr:Datum:Temp:Abs-Feuchte:Windchill:Wind:
Aussen-T/F 651 17-03-2010 10:12:02 5.5 C 4.35 g/m*3 5.5 C 0 km/h
652 17-03-2010 10:24:02 6.2 C 4.27 g/m*3 6.2 C 0 km/h
653 17-03-2010 10:36:02 6.8 C 4.36 g/m*3 6.8 C 0 km/h
654 17-03-2010 10:48:02 7.1 C 4.21 g/m*3 7.1 C 0 km/h
655 17-03-2010 11:00:02 7.6 C 4.11 g/m*3 7.6 C 0 km/h
656 17-03-2010 11:12:02 8.2 C 3.94 g/m*3 8.2 C 0 km/h
657 17-03-2010 11:24:02 8.8 C 3.92 g/m*3 8.8 C 0 km/h
658 17-03-2010 11:36:01 9 C 3.79 g/m*3 9 C 0 km/h
659 17-03-2010 11:48:02 9.1 C 3.73 g/m*3 9.1 C 0 km/h
660 17-03-2010 12:00:02 9.6 C 3.94 g/m*3 9.6 C 0 km/h
661 17-03-2010 12:12:01 10.1 C 3.78 g/m*3 10.1 C 0 km/h
662 17-03-2010 12:24:02 10.4 C 3.66 g/m*3 10.4 C 0 km/h
663 17-03-2010 12:36:02 11.1 C 3.73 g/m*3 11.1 C 0 km/h
664 17-03-2010 12:48:02 11.5 C 3.72 g/m*3 11.5 C 0 km/h
665 17-03-2010 13:00:03 11.8 C 3.58 g/m*3 11.8 C 0 km/h
666 17-03-2010 13:12:02 12.2 C 3.45 g/m*3 12.2 C 0 km/h
667 17-03-2010 13:24:02 12.8 C 3.47 g/m*3 12.8 C 0 km/h
668 17-03-2010 13:36:02 13.1 C 3.42 g/m*3 13.1 C 0 km/h
669 17-03-2010 13:48:02 13.2 C 3.44 g/m*3 13.2 C 0 km/h
670 17-03-2010 14:00:02 13.4 C 3.02 g/m*3 13.4 C 0 km/h
671 17-03-2010 14:12:02 13.5 C 2.92 g/m*3 13.5 C 0 km/h
672 17-03-2010 14:24:01 13.4 C 2.91 g/m*3 13.4 C 0 km/h
673 17-03-2010 14:36:02 13.8 C 3.1 g/m*3 13.8 C 0 km/h
674 17-03-2010 14:48:02 14.1 C 2.79 g/m*3 14.1 C 0 km/h
675 17-03-2010 15:00:02 14.5 C 3.11 g/m*3 14.5 C 0 km/h
Sensor: Nr:Datum:Temp:Abs-Feuchte:Windchill:Wind:
Aussen-T/F 676 17-03-2010 15:12:02 14.7 C 3.15 g/m*3 14.7 C 0 km/h
677 17-03-2010 15:24:02 14.6 C 3.13 g/m*3 14.6 C 0 km/h
678 17-03-2010 15:36:02 14.6 C 3.13 g/m*3 14.6 C 0 km/h
679 17-03-2010 15:48:02 14.1 C 3.16 g/m*3 14.1 C 0 km/h
680 17-03-2010 16:00:02 14.1 C 3.03 g/m*3 14.1 C 0 km/h
681 17-03-2010 16:12:03 13.9 C 3 g/m*3 13.9 C 0 km/h
682 17-03-2010 16:24:02 14 C 3.14 g/m*3 14 C 0 km/h
683 17-03-2010 16:36:02 13.9 C 3.12 g/m*3 13.9 C 0 km/h
684 17-03-2010 16:48:01 13.8 C 2.98 g/m*3 13.8 C 0 km/h
685 17-03-2010 17:00:01 13.7 C 3.08 g/m*3 13.7 C 0 km/h
686 17-03-2010 17:12:02 13.7 C 3.08 g/m*3 13.7 C 0 km/h
687 17-03-2010 17:24:01 13.4 C 3.25 g/m*3 13.4 C 0 km/h
688 17-03-2010 17:36:01 13.1 C 3.42 g/m*3 13.1 C 0 km/h
689 17-03-2010 17:48:01 12.5 C 3.63 g/m*3 12.5 C 0 km/h
690 17-03-2010 18:00:01 12 C 3.62 g/m*3 12 C 0 km/h
691 17-03-2010 18:12:02 11.7 C 3.77 g/m*3 11.7 C 0 km/h
692 17-03-2010 18:24:02 11.2 C 3.75 g/m*3 11.2 C 0 km/h
693 17-03-2010 18:36:01 10.8 C 3.76 g/m*3 10.8 C 0 km/h
694 17-03-2010 18:48:01 10.4 C 3.86 g/m*3 10.4 C 0 km/h
695 17-03-2010 19:00:01 10 C 3.95 g/m*3 10 C 0 km/h
696 17-03-2010 19:12:01 9.6 C 3.94 g/m*3 9.6 C 0 km/h
697 17-03-2010 19:24:02 9.5 C 3.91 g/m*3 9.5 C 0 km/h
698 17-03-2010 19:36:01 9.2 C 4.02 g/m*3 9.2 C 0 km/h
699 17-03-2010 19:48:03 9 C 4.14 g/m*3 9 C 0 km/h
700 17-03-2010 20:00:03 8.6 C 4.12 g/m*3 8.6 C 0 km/h
Sensor: Nr:Datum:Temp:Abs-Feuchte:Windchill:Wind:
Aussen-T/F 701 17-03-2010 20:12:02 8.5 C 4.18 g/m*3 8.5 C 0 km/h
702 17-03-2010 20:24:02 8.2 C 4.19 g/m*3 8.2 C 0 km/h
703 17-03-2010 20:36:02 7.9 C 4.19 g/m*3 7.9 C 0 km/h
704 17-03-2010 20:48:02 7.8 C 4.24 g/m*3 7.8 C 0 km/h
705 17-03-2010 21:00:02 7.5 C 4.32 g/m*3 7.5 C 0 km/h
706 17-03-2010 21:13:03 7.3 C 4.35 g/m*3 7.3 C 0 km/h
707 17-03-2010 21:25:03 7.3 C 4.35 g/m*3 7.3 C 0 km/h
708 17-03-2010 21:37:03 7 C 4.26 g/m*3 7 C 0 km/h
709 17-03-2010 21:49:03 6.9 C 4.39 g/m*3 6.9 C 0 km/h
710 17-03-2010 22:01:03 6.9 C 4.39 g/m*3 6.9 C 0 km/h
711 17-03-2010 22:13:03 6.9 C 4.39 g/m*3 6.9 C 0 km/h
712 17-03-2010 22:25:03 6.9 C 4.31 g/m*3 6.9 C 0 km/h
713 17-03-2010 22:37:03 6.9 C 4.23 g/m*3 6.9 C 0 km/h
714 17-03-2010 22:49:03 6.8 C 4.28 g/m*3 6.8 C 0 km/h
715 17-03-2010 23:01:03 6.6 C 4.38 g/m*3 6.6 C 0 km/h
716 17-03-2010 23:13:03 6.4 C 4.4 g/m*3 6.4 C 0 km/h
717 17-03-2010 23:25:03 6.1 C 4.38 g/m*3 6.1 C 0 km/h
718 17-03-2010 23:37:03 5.9 C 4.47 g/m*3 5.9 C 0 km/h
719 17-03-2010 23:49:03 6.2 C 4.49 g/m*3 6.2 C 0 km/h
720 18-03-2010 00:01:03 6.1 C 4.38 g/m*3 6.1 C 0 km/h
721 18-03-2010 00:13:03 6.1 C 4.38 g/m*3 6.1 C 0 km/h
722 18-03-2010 00:25:03 5.8 C 4.44 g/m*3 5.8 C 0 km/h
723 18-03-2010 00:37:03 5.7 C 4.41 g/m*3 5.7 C 0 km/h
724 18-03-2010 00:49:03 5.7 C 4.41 g/m*3 5.7 C 0 km/h
725 18-03-2010 01:01:03 5.6 C 4.38 g/m*3 5.6 C 0 km/h
Sensor: Nr:Datum:Temp:Abs-Feuchte:Windchill:Wind:
Aussen-T/F 726 18-03-2010 01:13:04 5.5 C 4.35 g/m*3 5.5 C 0 km/h
727 18-03-2010 01:25:04 5.6 C 4.38 g/m*3 5.6 C 0 km/h
728 18-03-2010 01:37:04 5.4 C 4.4 g/m*3 5.4 C 0 km/h
729 18-03-2010 01:49:04 5.4 C 4.47 g/m*3 5.4 C 0 km/h
730 18-03-2010 02:01:04 5.4 C 4.4 g/m*3 5.4 C 0 km/h
731 18-03-2010 02:13:04 5.4 C 4.4 g/m*3 5.4 C 0 km/h
732 18-03-2010 02:25:04 5.3 C 4.37 g/m*3 5.3 C 0 km/h
733 18-03-2010 02:37:04 4.9 C 4.39 g/m*3 4.9 C 0 km/h
734 18-03-2010 02:49:04 4.5 C 4.34 g/m*3 4.5 C 0 km/h
735 18-03-2010 03:01:04 4.3 C 4.35 g/m*3 4.3 C 0 km/h
736 18-03-2010 03:13:04 4 C 4.32 g/m*3 4 C 0 km/h
737 18-03-2010 03:25:04 3.8 C 4.39 g/m*3 3.8 C 0 km/h
738 18-03-2010 03:37:04 3.8 C 4.39 g/m*3 3.8 C 0 km/h
739 18-03-2010 03:49:04 3.8 C 4.39 g/m*3 3.8 C 0 km/h
740 18-03-2010 04:01:04 3.8 C 4.39 g/m*3 3.8 C 0 km/h
741 18-03-2010 04:13:04 3.7 C 4.42 g/m*3 3.7 C 0 km/h
742 18-03-2010 04:25:04 3.4 C 4.4 g/m*3 3.4 C 0 km/h
743 18-03-2010 04:37:04 3.2 C 4.34 g/m*3 3.2 C 0 km/h
744 18-03-2010 04:49:04 3 C 4.28 g/m*3 3 C 0 km/h
745 18-03-2010 05:01:04 2.8 C 4.34 g/m*3 2.8 C 0 km/h
746 18-03-2010 05:13:04 2.7 C 4.31 g/m*3 2.7 C 0 km/h
747 18-03-2010 05:25:04 2.5 C 4.25 g/m*3 2.5 C 0 km/h
748 18-03-2010 05:37:04 2.5 C 4.25 g/m*3 2.5 C 0 km/h
749 18-03-2010 05:49:05 2.2 C 4.17 g/m*3 2.2 C 0 km/h
750 18-03-2010 06:01:05 2.1 C 4.2 g/m*3 2.1 C 0 km/h
Sensor: Nr:Datum:Temp:Abs-Feuchte:Windchill:Wind:
Aussen-T/F 751 18-03-2010 06:13:05 2.1 C 4.25 g/m*3 2.1 C 0 km/h
752 18-03-2010 06:25:05 1.9 C 4.19 g/m*3 1.9 C 0 km/h
753 18-03-2010 06:37:05 1.8 C 4.22 g/m*3 1.8 C 0 km/h
754 18-03-2010 06:49:05 1.7 C 4.19 g/m*3 1.7 C 0 km/h
755 18-03-2010 07:01:02 1.7 C 4.19 g/m*3 1.7 C 0 km/h
756 18-03-2010 07:13:02 1.9 C 4.3 g/m*3 1.9 C 0 km/h
757 18-03-2010 07:25:03 1.8 C 4.28 g/m*3 1.8 C 0 km/h
758 18-03-2010 07:37:02 2 C 4.33 g/m*3 2 C 0 km/h
759 18-03-2010 07:49:02 2.2 C 4.39 g/m*3 2.2 C 0 km/h
760 18-03-2010 08:01:01 2.5 C 4.43 g/m*3 2.5 C 0 km/h
761 18-03-2010 08:13:01 2.8 C 4.52 g/m*3 2.8 C 0 km/h
762 18-03-2010 08:25:02 3.1 C 4.55 g/m*3 3.1 C 0 km/h
763 18-03-2010 08:37:01 3.5 C 4.61 g/m*3 3.5 C 0 km/h
764 18-03-2010 08:49:01 4 C 4.64 g/m*3 4 C 0 km/h
765 18-03-2010 09:01:02 4.6 C 4.7 g/m*3 4.6 C 0 km/h
766 18-03-2010 09:13:02 5.1 C 4.45 g/m*3 5.1 C 0 km/h
767 18-03-2010 09:25:01 5.3 C 4.37 g/m*3 5.3 C 0 km/h
768 18-03-2010 09:37:02 5.9 C 4.25 g/m*3 5.9 C 0 km/h
769 18-03-2010 09:49:01 6.2 C 4.19 g/m*3 6.2 C 0 km/h
770 18-03-2010 10:01:02 6.7 C 4.41 g/m*3 6.7 C 0 km/h
771 18-03-2010 10:13:02 7.4 C 4.53 g/m*3 7.4 C 0 km/h
772 18-03-2010 10:25:01 7.9 C 4.35 g/m*3 7.9 C 0 km/h
773 18-03-2010 10:37:02 8.3 C 4.3 g/m*3 8.3 C 0 km/h
774 18-03-2010 10:49:01 8.8 C 4.35 g/m*3 8.8 C 0 km/h
775 18-03-2010 11:01:02 9.5 C 4.46 g/m*3 9.5 C 0 km/h
Sensor: Nr:Datum:Temp:Abs-Feuchte:Windchill:Wind:
Aussen-T/F 776 18-03-2010 11:13:02 10.2 C 4.47 g/m*3 10.2 C 0 km/h
777 18-03-2010 11:25:02 10.7 C 4.52 g/m*3 10.7 C 0 km/h
778 18-03-2010 11:37:01 11.4 C 4.21 g/m*3 11.4 C 0 km/h
779 18-03-2010 11:49:01 12 C 4.05 g/m*3 12 C 0 km/h
780 18-03-2010 12:01:01 12.8 C 4.26 g/m*3 12.8 C 0 km/h
781 18-03-2010 12:13:01 13.4 C 4.18 g/m*3 13.4 C 0 km/h
782 18-03-2010 12:25:02 14.2 C 4.27 g/m*3 14.2 C 0 km/h
783 18-03-2010 12:37:01 15 C 4.1 g/m*3 15 C 0 km/h
784 18-03-2010 12:49:02 15.9 C 4.2 g/m*3 15.9 C 0 km/h
785 18-03-2010 13:01:01 16.8 C 3.86 g/m*3 16.8 C 0 km/h
786 18-03-2010 13:13:01 17.5 C 3.58 g/m*3 17.5 C 0 km/h
787 18-03-2010 13:25:02 18.2 C 3.11 g/m*3 18.2 C 0 km/h
788 18-03-2010 13:37:01 18.7 C 3.2 g/m*3 18.7 C 0 km/h
789 18-03-2010 13:49:02 19 C 3.26 g/m*3 19 C 0 km/h
790 18-03-2010 14:01:02 19.2 C 3.3 g/m*3 19.2 C 0 km/h
791 18-03-2010 14:13:02 19.1 C 3.28 g/m*3 19.1 C 0 km/h
792 18-03-2010 14:25:02 19 C 3.26 g/m*3 19 C 0 km/h
793 18-03-2010 14:37:02 19.2 C 3.3 g/m*3 19.2 C 0 km/h
794 18-03-2010 14:49:02 19.6 C 3.38 g/m*3 19.6 C 0 km/h
795 18-03-2010 15:01:01 20.2 C 3.5 g/m*3 20.2 C 0 km/h
796 18-03-2010 15:13:01 20 C 3.46 g/m*3 20 C 0 km/h
797 18-03-2010 15:25:02 20.4 C 3.54 g/m*3 20.4 C 0 km/h
798 18-03-2010 15:37:02 20.6 C 3.58 g/m*3 20.6 C 0 km/h
799 18-03-2010 15:49:01 20.6 C 3.58 g/m*3 20.6 C 0 km/h
800 18-03-2010 16:01:01 20 C 3.46 g/m*3 20 C 0 km/h
Sensor: Nr:Datum:Temp:Abs-Feuchte:Windchill:Wind:
Aussen-T/F 801 18-03-2010 16:13:01 19.8 C 3.42 g/m*3 19.8 C 0 km/h
802 18-03-2010 16:25:01 20 C 3.46 g/m*3 20 C 0 km/h
803 18-03-2010 16:37:02 20 C 3.46 g/m*3 20 C 0 km/h
804 18-03-2010 16:49:02 19.3 C 3.32 g/m*3 19.3 C 0 km/h
805 18-03-2010 17:01:02 19.1 C 3.28 g/m*3 19.1 C 0 km/h
806 18-03-2010 17:13:02 18.5 C 3.16 g/m*3 18.5 C 0 km/h
807 18-03-2010 17:25:02 18 C 3.38 g/m*3 18 C 0 km/h
808 18-03-2010 17:37:02 17.5 C 3.88 g/m*3 17.5 C 0 km/h
809 18-03-2010 17:49:02 16.8 C 4.15 g/m*3 16.8 C 0 km/h
810 18-03-2010 18:01:03 16.3 C 4.16 g/m*3 16.3 C 0 km/h
811 18-03-2010 18:13:03 15.8 C 4.17 g/m*3 15.8 C 0 km/h
812 18-03-2010 18:25:02 15.4 C 3.94 g/m*3 15.4 C 0 km/h
813 18-03-2010 18:37:02 15 C 3.98 g/m*3 15 C 0 km/h
814 18-03-2010 18:49:01 14.5 C 3.98 g/m*3 14.5 C 0 km/h
815 18-03-2010 19:01:02 14.1 C 4 g/m*3 14.1 C 0 km/h
816 18-03-2010 19:13:02 13.7 C 4.14 g/m*3 13.7 C 0 km/h
817 18-03-2010 19:25:01 13.4 C 4.18 g/m*3 13.4 C 0 km/h
818 18-03-2010 19:37:02 13.3 C 4.04 g/m*3 13.3 C 0 km/h
819 18-03-2010 19:49:02 13.2 C 4.13 g/m*3 13.2 C 0 km/h
820 18-03-2010 20:01:02 13.1 C 4.11 g/m*3 13.1 C 0 km/h
821 18-03-2010 20:13:02 13.1 C 3.99 g/m*3 13.1 C 0 km/h
822 18-03-2010 20:25:01 13 C 3.86 g/m*3 13 C 0 km/h
823 18-03-2010 20:37:02 12.8 C 4.03 g/m*3 12.8 C 0 km/h
824 18-03-2010 20:49:02 12.6 C 3.98 g/m*3 12.6 C 0 km/h
825 18-03-2010 21:01:02 12.4 C 3.93 g/m*3 12.4 C 0 km/h
Sensor: Nr:Datum:Temp:Abs-Feuchte:Windchill:Wind:
Aussen-T/F 826 18-03-2010 21:13:02 12.4 C 3.82 g/m*3 12.4 C 0 km/h
827 18-03-2010 21:25:02 12.4 C 3.82 g/m*3 12.4 C 0 km/h
828 18-03-2010 21:37:02 12.1 C 3.97 g/m*3 12.1 C 0 km/h
829 18-03-2010 21:49:02 11.8 C 3.89 g/m*3 11.8 C 0 km/h
830 18-03-2010 22:01:02 11.7 C 3.97 g/m*3 11.7 C 0 km/h
831 18-03-2010 22:13:02 11.4 C 3.9 g/m*3 11.4 C 0 km/h
832 18-03-2010 22:25:02 11.2 C 4.05 g/m*3 11.2 C 0 km/h
833 18-03-2010 22:38:04 11.1 C 4.03 g/m*3 11.1 C 0 km/h
834 18-03-2010 22:50:04 10.8 C 4.05 g/m*3 10.8 C 0 km/h
835 18-03-2010 23:02:04 10.5 C 4.07 g/m*3 10.5 C 0 km/h
836 18-03-2010 23:14:04 10.7 C 3.93 g/m*3 10.7 C 0 km/h
837 18-03-2010 23:26:04 10.7 C 3.93 g/m*3 10.7 C 0 km/h
838 18-03-2010 23:38:04 10.5 C 3.98 g/m*3 10.5 C 0 km/h
839 18-03-2010 23:50:04 10.4 C 3.86 g/m*3 10.4 C 0 km/h

Legende:
   Min
   Max


Maximal/Minimal-Werte vom 12.03.2010 - 18.03.2010

Sensor Min Max Avg
Temp
(Aussen-T/F)
-2.7 °C
12-03-2010  00:31:05
20.6 °C
18-03-2010  15:37:02
5.87 °C
Abs-Feuchte
(Aussen-T/F)
2.79 g/m*3
17-03-2010  14:48:02
6.48 g/m*3
16-03-2010  09:35:01
4.39 g/m*3
Windchill
(Aussen-T/F)
-2.7 C
12-03-2010  00:31:05
20.6 C
18-03-2010  15:37:02
5.87 C

Die Daten stammen von einer Davis Vantage Pro 2 Wetter-Station und werden unter Linux mit der Software wview2wettercgi und aufbereitet. Alle Angaben erfolgen ohne Gewähr für ihre Vollständigkeit oder Richtigkeit.
Kontakt: Rainer Krienke krienke@uni-koblenz.de . Meine Webseiten an der Uni Koblenz oder privat.
Version: $Revision: 0.78 $